createdAt,value
2018-12-12T00:00:59.338Z,99.90
2018-12-12T00:03:28.177Z,99.90
2018-12-12T00:05:57.019Z,99.90
2018-12-12T00:08:25.860Z,99.90
2018-12-12T00:10:54.749Z,99.90
2018-12-12T00:13:23.606Z,99.90
2018-12-12T00:15:52.472Z,99.90
2018-12-12T00:18:21.507Z,99.90
2018-12-12T00:20:50.371Z,99.90
2018-12-12T00:23:19.301Z,99.90
2018-12-12T00:25:48.206Z,99.90
2018-12-12T00:28:17.035Z,99.90
2018-12-12T00:30:45.895Z,99.90
2018-12-12T00:33:14.746Z,99.90
2018-12-12T00:35:43.602Z,99.90
2018-12-12T00:38:12.552Z,99.90
2018-12-12T00:40:41.404Z,99.90
2018-12-12T00:43:10.282Z,99.90
2018-12-12T00:45:39.157Z,99.90
2018-12-12T00:48:08.022Z,99.90
2018-12-12T00:50:36.892Z,99.90
2018-12-12T00:53:05.770Z,99.90
2018-12-12T00:55:34.714Z,99.90
2018-12-12T00:58:03.986Z,99.90
2018-12-12T01:00:32.986Z,99.90
2018-12-12T01:03:01.955Z,99.90
2018-12-12T01:05:30.913Z,99.90
2018-12-12T01:07:59.843Z,99.90
2018-12-12T01:10:28.801Z,99.90
2018-12-12T01:12:57.748Z,99.90
2018-12-12T01:15:26.711Z,99.90
2018-12-12T01:17:55.561Z,99.90
2018-12-12T01:20:24.436Z,99.90
2018-12-12T01:22:53.311Z,99.90
2018-12-12T01:25:22.232Z,99.90
2018-12-12T01:27:51.122Z,99.90
2018-12-12T01:30:19.998Z,99.90
2018-12-12T01:32:48.955Z,99.90
2018-12-12T01:35:17.756Z,99.90
2018-12-12T01:37:46.631Z,99.90
2018-12-12T01:40:15.451Z,99.90
2018-12-12T01:42:44.416Z,99.90
2018-12-12T01:45:13.230Z,99.90
2018-12-12T01:47:42.081Z,99.90
2018-12-12T01:50:10.932Z,99.90
2018-12-12T01:52:39.927Z,99.90
2018-12-12T01:55:08.796Z,99.90
2018-12-12T01:57:37.756Z,99.90
2018-12-12T02:00:06.683Z,99.90
2018-12-12T02:02:35.579Z,99.90
2018-12-12T02:05:04.670Z,99.90
2018-12-12T02:07:33.571Z,99.90
2018-12-12T02:10:02.435Z,99.90
2018-12-12T02:12:31.310Z,99.90
2018-12-12T02:15:00.191Z,99.90
2018-12-12T02:17:29.097Z,99.90
2018-12-12T02:19:58.044Z,99.90
2018-12-12T02:22:26.935Z,99.90
2018-12-12T02:24:55.824Z,99.90
2018-12-12T02:27:25.003Z,99.90
2018-12-12T02:29:53.878Z,99.90
2018-12-12T02:32:22.756Z,99.90
2018-12-12T02:34:52.007Z,99.90
2018-12-12T02:37:20.884Z,99.90
2018-12-12T02:39:49.753Z,99.90
2018-12-12T02:42:18.637Z,99.90
2018-12-12T02:44:47.514Z,99.90
2018-12-12T02:47:16.376Z,99.90
2018-12-12T02:49:45.229Z,99.90
2018-12-12T02:52:14.199Z,99.90
2018-12-12T02:54:43.113Z,99.90
2018-12-12T02:57:12.102Z,99.90
2018-12-12T02:59:40.978Z,99.90
2018-12-12T03:02:09.857Z,99.90
2018-12-12T03:04:38.734Z,99.90
2018-12-12T03:07:07.675Z,99.90
2018-12-12T03:09:36.531Z,99.90
2018-12-12T03:12:05.373Z,99.90
2018-12-12T03:14:34.288Z,99.90
2018-12-12T03:17:05.275Z,99.90
2018-12-12T03:19:35.144Z,99.90
2018-12-12T03:22:04.178Z,99.90
2018-12-12T03:24:33.082Z,99.90
2018-12-12T03:27:01.983Z,99.90
2018-12-12T03:29:30.842Z,99.90
2018-12-12T03:31:59.769Z,99.90
2018-12-12T03:34:28.677Z,99.90
2018-12-12T03:36:57.589Z,99.90
2018-12-12T03:39:26.787Z,99.90
2018-12-12T03:41:55.930Z,99.90
2018-12-12T03:44:25.002Z,99.90
2018-12-12T03:46:53.850Z,99.90
2018-12-12T03:49:22.753Z,99.90
2018-12-12T03:51:51.658Z,99.90
2018-12-12T03:54:20.522Z,99.90
2018-12-12T03:56:51.247Z,99.90
2018-12-12T03:59:21.340Z,99.90
2018-12-12T04:01:50.711Z,99.90
2018-12-12T04:04:20.013Z,99.90
2018-12-12T04:06:48.917Z,99.90
2018-12-12T04:09:18.674Z,99.90
2018-12-12T04:11:47.888Z,99.90
2018-12-12T04:14:17.024Z,99.90
2018-12-12T04:16:46.957Z,99.90
2018-12-12T04:19:16.341Z,99.90
2018-12-12T04:21:46.014Z,99.90
2018-12-12T04:24:16.237Z,99.90
2018-12-12T04:26:46.154Z,99.90
2018-12-12T04:29:16.231Z,99.90
2018-12-12T04:31:45.841Z,99.90
2018-12-12T04:34:15.768Z,99.90
2018-12-12T04:36:45.577Z,99.90
2018-12-12T04:39:15.298Z,99.90
2018-12-12T04:41:45.222Z,99.90
2018-12-12T04:44:15.104Z,99.90
2018-12-12T04:46:44.973Z,99.90
2018-12-12T04:49:14.793Z,99.90
2018-12-12T04:51:44.580Z,99.90
2018-12-12T04:54:14.417Z,99.90
2018-12-12T04:56:45.435Z,99.90
2018-12-12T04:59:15.722Z,99.90
2018-12-12T05:01:45.823Z,99.90
2018-12-12T05:04:15.725Z,99.90
2018-12-12T05:06:47.159Z,99.90
2018-12-12T05:09:17.054Z,99.90
2018-12-12T05:11:47.072Z,99.90
2018-12-12T05:14:15.899Z,99.90
2018-12-12T05:16:44.791Z,99.90
2018-12-12T05:19:13.721Z,99.90
2018-12-12T05:21:42.615Z,99.90
2018-12-12T05:24:11.560Z,99.90
2018-12-12T05:26:40.421Z,99.90
2018-12-12T05:29:09.350Z,99.90
2018-12-12T05:31:38.369Z,99.90
2018-12-12T05:34:07.250Z,99.90
2018-12-12T05:36:36.251Z,99.90
2018-12-12T05:39:07.374Z,99.90
2018-12-12T05:41:38.252Z,99.90
2018-12-12T05:44:07.860Z,99.90
2018-12-12T05:46:41.821Z,99.90
2018-12-12T05:49:07.630Z,99.90
2018-12-12T05:51:36.585Z,99.90
2018-12-12T05:54:05.453Z,99.90
2018-12-12T05:56:34.323Z,99.90
2018-12-12T05:59:03.507Z,99.90
2018-12-12T06:01:32.464Z,99.90
2018-12-12T06:04:01.314Z,99.90
2018-12-12T06:06:30.501Z,99.90
2018-12-12T06:08:59.371Z,99.90
2018-12-12T06:11:28.277Z,99.90
2018-12-12T06:13:57.163Z,99.90
2018-12-12T06:16:26.450Z,99.90
2018-12-12T06:18:55.422Z,99.90
2018-12-12T06:21:24.351Z,99.90
2018-12-12T06:23:53.296Z,99.90
2018-12-12T06:26:22.955Z,99.90
2018-12-12T06:28:51.853Z,99.90
2018-12-12T06:31:20.814Z,99.90
2018-12-12T06:33:49.702Z,99.90
2018-12-12T06:36:20.500Z,99.90
2018-12-12T06:38:49.998Z,99.90
2018-12-12T06:41:18.888Z,99.90
2018-12-12T06:43:47.766Z,99.90
2018-12-12T06:46:16.614Z,99.90
2018-12-12T06:48:45.525Z,99.90
2018-12-12T06:51:16.146Z,99.90
2018-12-12T06:53:45.006Z,99.90
2018-12-12T06:56:13.972Z,99.90
2018-12-12T06:58:42.935Z,99.90
2018-12-12T07:01:11.850Z,99.90
2018-12-12T07:03:40.718Z,99.90
2018-12-12T07:06:09.608Z,99.90
2018-12-12T07:08:38.531Z,99.90
2018-12-12T07:11:07.482Z,99.90
2018-12-12T07:13:36.361Z,99.90
2018-12-12T07:16:05.529Z,99.90
2018-12-12T07:18:34.420Z,99.90
2018-12-12T07:21:03.380Z,99.90
2018-12-12T07:23:32.362Z,99.90
2018-12-12T07:26:01.294Z,99.90
2018-12-12T07:28:30.291Z,99.90
2018-12-12T07:30:59.199Z,99.90
2018-12-12T07:33:28.068Z,99.90
2018-12-12T07:35:59.626Z,99.90
2018-12-12T07:38:27.894Z,99.90
2018-12-12T07:40:56.771Z,99.90
2018-12-12T07:43:25.780Z,99.90
2018-12-12T07:45:54.816Z,99.90
2018-12-12T07:48:23.780Z,99.90
2018-12-12T07:50:52.718Z,99.90
2018-12-12T07:53:21.725Z,99.90
2018-12-12T07:55:50.574Z,99.90
2018-12-12T07:58:19.461Z,99.90
2018-12-12T08:00:48.366Z,99.90
2018-12-12T08:03:17.254Z,99.90
2018-12-12T08:05:46.203Z,99.90
2018-12-12T08:08:15.419Z,99.90
2018-12-12T08:10:44.342Z,99.90
2018-12-12T08:13:13.235Z,99.90
2018-12-12T08:15:42.102Z,99.90
2018-12-12T08:18:10.988Z,99.90
2018-12-12T08:20:39.868Z,99.90
2018-12-12T08:23:09.272Z,99.90
2018-12-12T08:25:38.956Z,99.90
2018-12-12T08:28:07.806Z,99.90
2018-12-12T08:30:36.691Z,99.90
2018-12-12T08:33:10.937Z,99.90
2018-12-12T12:58:26.605Z,99.90
2018-12-12T13:00:55.486Z,99.90
2018-12-12T13:03:24.353Z,99.90
2018-12-12T13:05:53.173Z,99.90
2018-12-12T13:08:22.497Z,99.90
2018-12-12T13:10:51.478Z,99.90
2018-12-12T13:13:21.191Z,99.90
2018-12-12T13:15:50.631Z,99.90
2018-12-12T13:18:19.679Z,99.90
2018-12-12T13:20:49.748Z,99.90
2018-12-12T13:23:18.593Z,99.90
2018-12-12T13:25:47.623Z,99.90
2018-12-12T13:28:16.466Z,99.90
2018-12-12T13:30:46.374Z,99.90
2018-12-12T13:33:15.370Z,99.90
2018-12-12T13:35:44.204Z,99.90
2018-12-12T13:38:13.138Z,99.90
2018-12-12T13:40:41.996Z,99.90
2018-12-12T13:43:10.934Z,99.90
2018-12-12T13:45:39.863Z,99.90
2018-12-12T13:48:09.756Z,99.90
2018-12-12T13:50:38.628Z,99.90
2018-12-12T13:53:07.478Z,99.90
2018-12-12T13:55:36.362Z,99.90
2018-12-12T13:58:05.734Z,99.90
2018-12-12T14:00:39.070Z,99.90
2018-12-12T14:03:07.603Z,99.90
2018-12-12T14:05:37.082Z,99.90
2018-12-12T14:08:06.067Z,99.80
2018-12-12T14:10:36.549Z,99.90
2018-12-12T14:13:06.299Z,99.90
2018-12-12T14:15:35.139Z,99.90
2018-12-12T14:18:04.171Z,99.90
2018-12-12T14:20:33.025Z,99.90
2018-12-12T14:23:01.934Z,99.90
2018-12-12T14:25:30.806Z,99.90
2018-12-12T14:27:59.705Z,99.90
2018-12-12T14:30:28.663Z,99.90
2018-12-12T14:32:57.606Z,99.90
2018-12-12T14:35:26.556Z,99.90
2018-12-12T14:37:55.434Z,99.40
2018-12-12T14:40:24.387Z,99.60
2018-12-12T14:42:53.252Z,99.20
2018-12-12T14:45:22.113Z,99.10
2018-12-12T14:47:51.612Z,98.80
2018-12-12T14:50:20.511Z,98.70
2018-12-12T14:52:49.371Z,98.90
2018-12-12T14:55:18.773Z,98.90
2018-12-12T14:57:47.631Z,99.00
2018-12-12T15:00:16.518Z,99.10
2018-12-12T15:02:45.433Z,98.90
2018-12-12T15:11:14.986Z,98.90
2018-12-12T15:13:43.823Z,99.30
2018-12-12T15:16:12.690Z,98.50
2018-12-12T15:18:41.608Z,98.80
2018-12-12T15:21:10.525Z,98.80
2018-12-12T15:23:39.393Z,98.70
2018-12-12T15:26:08.237Z,99.00
2018-12-12T15:28:37.068Z,99.10
2018-12-12T15:31:05.927Z,98.80
2018-12-12T15:33:34.808Z,98.60
2018-12-12T15:36:04.793Z,98.30
2018-12-12T15:38:33.613Z,98.20
2018-12-12T15:41:02.468Z,97.80
2018-12-12T15:43:31.317Z,98.30
2018-12-12T15:46:00.190Z,98.00
2018-12-12T15:48:29.089Z,98.10
2018-12-12T15:50:57.968Z,98.20
2018-12-12T15:53:26.797Z,97.90
2018-12-12T15:55:55.621Z,97.50
2018-12-12T15:58:24.445Z,97.20
2018-12-12T16:00:53.334Z,97.00
2018-12-12T16:03:22.264Z,96.80
2018-12-12T16:05:51.100Z,96.60
2018-12-12T16:08:19.942Z,96.80
2018-12-12T16:10:48.777Z,97.10
2018-12-12T16:13:17.628Z,96.70
2018-12-12T16:15:47.335Z,96.80
2018-12-12T16:18:16.185Z,96.60
2018-12-12T16:20:45.017Z,97.10
2018-12-12T16:23:13.861Z,96.90
2018-12-12T16:25:42.707Z,96.20
2018-12-12T16:28:11.522Z,96.50
2018-12-12T16:30:40.371Z,96.60
2018-12-12T16:33:09.215Z,96.60
2018-12-12T16:35:38.058Z,96.50
2018-12-12T16:38:06.926Z,96.60
2018-12-12T16:40:35.786Z,96.40
2018-12-12T16:43:04.716Z,96.60
2018-12-12T16:45:33.565Z,96.40
2018-12-12T16:48:02.394Z,96.30
2018-12-12T16:50:31.252Z,96.10
2018-12-12T16:53:00.167Z,96.20
2018-12-12T16:55:29.575Z,96.60
2018-12-12T16:57:58.460Z,96.30
2018-12-12T17:00:27.365Z,96.50
2018-12-12T17:02:56.293Z,96.50
2018-12-12T17:05:25.177Z,96.40
2018-12-12T17:07:54.063Z,96.50
2018-12-12T17:10:22.979Z,96.70
2018-12-12T17:12:51.862Z,96.80
2018-12-12T17:16:24.278Z,97.20
2018-12-12T17:18:53.273Z,97.50
2018-12-12T17:21:22.145Z,97.40
2018-12-12T17:23:51.014Z,97.80
2018-12-12T17:26:19.947Z,97.70
2018-12-12T17:28:48.804Z,97.20
2018-12-12T17:31:17.685Z,97.20
2018-12-12T17:33:46.520Z,97.50
2018-12-12T17:36:15.422Z,97.80
2018-12-12T17:38:44.318Z,97.90
2018-12-12T17:41:13.202Z,98.10
2018-12-12T17:43:42.176Z,98.80
2018-12-12T17:46:11.020Z,99.60
2018-12-12T17:48:39.910Z,99.90
2018-12-12T17:51:08.803Z,99.10
2018-12-12T17:53:37.669Z,99.20
2018-12-12T17:56:06.541Z,99.90
2018-12-12T17:58:35.425Z,99.90
2018-12-12T18:01:04.573Z,99.90
2018-12-12T18:03:33.521Z,99.90
2018-12-12T18:06:02.452Z,99.80
2018-12-12T18:08:31.331Z,99.60
2018-12-12T18:11:00.216Z,99.30
2018-12-12T18:13:29.095Z,99.10
2018-12-12T18:15:57.978Z,99.50
2018-12-12T18:18:26.813Z,99.50
2018-12-12T18:20:55.729Z,99.50
2018-12-12T18:23:24.939Z,99.20
2018-12-12T18:25:53.815Z,99.10
2018-12-12T18:28:22.669Z,99.20
2018-12-12T18:30:51.548Z,99.00
2018-12-12T18:33:20.380Z,98.90
2018-12-12T18:35:49.303Z,99.20
2018-12-12T18:38:18.186Z,99.10
2018-12-12T18:40:47.081Z,99.20
2018-12-12T18:43:15.959Z,98.90
2018-12-12T18:45:44.850Z,99.50
2018-12-12T18:48:13.776Z,99.50
2018-12-12T18:50:42.696Z,99.50
2018-12-12T18:53:11.985Z,99.70
2018-12-12T18:55:43.384Z,99.50
2018-12-12T18:58:12.267Z,99.60
2018-12-12T19:00:41.201Z,99.70
2018-12-12T19:03:10.113Z,99.70
2018-12-12T19:05:39.002Z,99.90
2018-12-12T19:08:07.924Z,99.90
2018-12-12T19:10:36.829Z,99.90
2018-12-12T19:13:05.711Z,99.90
2018-12-12T19:15:34.627Z,99.90
2018-12-12T19:18:03.656Z,99.90
2018-12-12T19:20:32.553Z,99.90
2018-12-12T19:23:01.998Z,99.90
2018-12-12T19:25:30.965Z,99.90
2018-12-12T19:27:59.855Z,99.90
2018-12-12T19:30:28.808Z,99.90
2018-12-12T19:32:57.704Z,99.90
2018-12-12T19:35:26.792Z,99.90
2018-12-12T19:37:55.825Z,99.90
2018-12-12T19:40:24.751Z,99.90
2018-12-12T19:42:53.731Z,99.90
2018-12-12T19:45:23.678Z,99.90
2018-12-12T19:47:52.728Z,99.90
2018-12-12T19:50:21.577Z,99.90
2018-12-12T19:52:50.503Z,99.50
2018-12-12T19:55:19.409Z,99.20
2018-12-12T19:57:48.345Z,99.30
2018-12-12T20:00:17.704Z,99.50
2018-12-12T20:02:46.682Z,99.10
2018-12-12T20:05:16.861Z,99.00
2018-12-12T20:07:46.294Z,98.90
2018-12-12T20:10:15.583Z,98.90
2018-12-12T20:12:44.598Z,98.30
2018-12-12T20:15:19.030Z,98.50
2018-12-12T20:17:48.542Z,98.30
2018-12-12T20:20:17.922Z,97.90
2018-12-12T20:22:47.597Z,97.90
2018-12-12T20:25:16.757Z,98.10
2018-12-12T20:27:46.130Z,97.90
2018-12-12T20:30:15.350Z,98.00
2018-12-12T20:32:44.231Z,97.90
2018-12-12T20:35:13.236Z,97.50
2018-12-12T20:37:42.325Z,97.20
2018-12-12T20:40:11.321Z,97.40
2018-12-12T20:42:40.378Z,98.30
2018-12-12T20:45:09.288Z,98.70
2018-12-12T20:47:38.367Z,99.40
2018-12-12T20:50:08.144Z,99.00
2018-12-12T20:52:37.273Z,98.10
2018-12-12T20:55:06.359Z,99.00
2018-12-12T20:57:35.416Z,99.00
2018-12-12T21:00:04.775Z,99.00
2018-12-12T21:02:33.768Z,99.10
2018-12-12T21:05:03.195Z,99.30
2018-12-12T21:07:32.190Z,99.00
2018-12-12T21:10:01.095Z,98.90
2018-12-12T21:12:29.987Z,98.80
2018-12-12T21:14:58.949Z,99.00
2018-12-12T21:17:28.162Z,99.60
2018-12-12T21:19:57.163Z,99.10
2018-12-12T21:22:26.093Z,98.70
2018-12-12T21:24:55.028Z,98.10
2018-12-12T21:27:24.138Z,97.50
2018-12-12T21:29:53.461Z,97.40
2018-12-12T21:32:22.405Z,97.50
2018-12-12T21:34:53.429Z,98.00
2018-12-12T21:37:22.281Z,97.50
2018-12-12T21:39:51.232Z,97.00
2018-12-12T21:42:20.138Z,96.60
2018-12-12T21:44:48.985Z,96.40
2018-12-12T21:47:17.981Z,96.80
2018-12-12T21:49:46.807Z,96.60
2018-12-12T21:52:15.685Z,96.90
2018-12-12T21:54:44.727Z,96.60
2018-12-12T21:57:13.731Z,96.40
2018-12-12T21:59:42.673Z,97.50
2018-12-12T22:02:11.648Z,96.30
2018-12-12T22:04:40.647Z,95.70
2018-12-12T22:07:09.575Z,95.10
2018-12-12T22:09:38.504Z,94.90
2018-12-12T22:12:07.506Z,95.20
2018-12-12T22:14:36.486Z,95.00
2018-12-12T22:17:05.411Z,94.50
2018-12-12T22:19:34.280Z,94.80
2018-12-12T22:22:03.285Z,94.80
2018-12-12T22:24:32.145Z,95.40
2018-12-12T22:27:01.522Z,95.50
2018-12-12T22:29:30.586Z,95.30
2018-12-12T22:31:59.495Z,95.30
2018-12-12T22:34:29.619Z,95.10
2018-12-12T22:36:58.487Z,95.00
2018-12-12T22:39:27.356Z,95.00
2018-12-12T22:41:56.304Z,94.70
2018-12-12T22:44:25.231Z,94.20
2018-12-12T22:46:54.451Z,94.40
2018-12-12T22:49:24.282Z,94.40
2018-12-12T22:51:53.270Z,94.20
2018-12-12T22:54:22.169Z,94.10
2018-12-12T22:56:51.015Z,94.30
2018-12-12T22:59:19.905Z,94.50
2018-12-12T23:01:48.874Z,94.30
2018-12-12T23:04:17.730Z,94.10
2018-12-12T23:06:46.594Z,94.00
2018-12-12T23:09:15.616Z,94.10
2018-12-12T23:11:44.429Z,94.00
2018-12-12T23:14:13.503Z,94.10
2018-12-12T23:16:42.405Z,94.20
2018-12-12T23:19:11.230Z,93.20
2018-12-12T23:21:40.118Z,93.20
2018-12-12T23:24:08.944Z,93.00
2018-12-12T23:26:37.823Z,93.10
2018-12-12T23:29:06.697Z,93.60
2018-12-12T23:31:35.573Z,93.40
2018-12-12T23:34:04.538Z,93.80
2018-12-12T23:36:33.385Z,93.30
2018-12-12T23:39:02.344Z,93.20
2018-12-12T23:41:31.210Z,93.00
2018-12-12T23:44:00.183Z,93.20
2018-12-12T23:46:28.992Z,93.30
2018-12-12T23:48:57.833Z,92.90
2018-12-12T23:51:26.699Z,92.90
2018-12-12T23:53:55.610Z,92.70
2018-12-12T23:56:24.608Z,92.80
2018-12-12T23:58:53.489Z,93.90
